Nearby METAR Reports

 

KTTN - Trenton, New Jersey, USA
Distance from station: W 8mi, 12km
Updated: Sun, 28-Nov-2021 6:53am EST
Overcast
Overcast
 Wind from ESE
Wind: ESE 5 mph , 7 km/h
Temperature: 34°F , 1°C
Wind Chill: 29°F , -2°C
Dew Point: 28°F , -2°C
Humidity: 81%
Barometer: 29.88 inHg , 1011.9 hPa
Clouds: Overcast
Visibility: 10 miles , 16 km
Cloud details: Mostly cloudy 5000 ft
Overcast 8000 ft
2021/11/28 11:53 KTTN 281153Z 12004KT 10SM BKN050 OVC080 01/M02 A2988 RMK AO2 SLP114 T00061022 10017 20006 56013
KWRI - Wrightst/Mcguire, New Jersey, USA
Distance from station: SSE 18mi, 29km
Updated: Sun, 28-Nov-2021 6:56am EST
Overcast
Overcast
 Wind from ESE
Wind: ESE 3 mph , 6 km/h
Temperature: 32°F , 0°C
Dew Point: 25°F , -4°C
Humidity: 75%
Barometer: 29.88 inHg , 1011.9 hPa
Clouds: Overcast
Visibility: 10 miles , 16 km
Cloud details: Overcast 5500 ft
2021/11/28 11:56 KWRI 281156Z 12003KT 10SM OVC055 00/M04 A2988 RMK AO2A SLP119 T00041037 10015 20003 57012 $
KPNE - Philadelphia/Ne, Pennsylvania, USA
Distance from station: SW 22mi, 35km
Updated: Sun, 28-Nov-2021 6:54am EST
Overcast
Overcast
 Wind from E
Wind: E 7 mph , 11 km/h
Temperature: 34°F , 1°C
Wind Chill: 28°F , -2°C
Dew Point: 27°F , -3°C
Humidity: 75%
Barometer: 29.89 inHg , 1012.2 hPa
Clouds: Overcast
Visibility: 10 miles , 16 km
Cloud details: Overcast 10000 ft
2021/11/28 11:54 KPNE 281154Z 10006KT 10SM OVC100 01/M03 A2989 RMK AO2 SLP123 60000 T00111033 10017 20006 56014
 
KDYL - Doylestown, Pennsylvania, USA
Distance from station: W 24mi, 38km
Updated: Sun, 28-Nov-2021 6:54am EST
Overcast
Overcast
 Wind from calm
Wind: Calm
Temperature: 34°F , 1°C
Dew Point: 25°F , -4°C
Humidity: 70%
Barometer: 29.86 inHg , 1011.2 hPa
Clouds: Overcast
Visibility: 10 miles , 16 km
Cloud details: Mostly cloudy 4600 ft
Overcast 8000 ft
2021/11/28 11:54 KDYL 281154Z AUTO 00000KT 10SM BKN046 OVC080 01/M04 A2986 RMK AO2 SLP118 T00061039 10011 20006 56010
KSMQ - Somerville, New Jersey, USA
Distance from station: 0 24mi, 39km
Updated: Sun, 28-Nov-2021 6:53am EST
Overcast
Overcast
 Wind from calm
Wind: Calm
Temperature: 32°F , 0°C
Dew Point: 30°F , -1°C
Humidity: 93%
Barometer: 29.88 inHg , 1011.9 hPa
Clouds: Overcast
Visibility: 10 miles , 16 km
Cloud details: Mostly cloudy 4900 ft
Overcast 6500 ft
2021/11/28 11:53 KSMQ 281153Z AUTO 00000KT 10SM BKN049 OVC065 00/M01 A2988 RMK AO2 SLP120 60000 T00001011 10006 21006 56009
KVAY - Mount Holly, New Jersey, USA
Distance from station: SSW 24mi, 39km
Updated: Sun, 28-Nov-2021 6:54am EST
Overcast
Overcast
 Wind from calm
Wind: Calm
Temperature: 36°F , 2°C
Dew Point: 27°F , -3°C
Humidity: 70%
Barometer: 29.89 inHg , 1012.2 hPa
Clouds: Overcast
Visibility: 10 miles , 16 km
Cloud details: Partly cloudy 6000 ft
Overcast 10000 ft
2021/11/28 11:54 KVAY 281154Z AUTO 00000KT 10SM SCT060 OVC100 02/M03 A2989 RMK AO2 SLP121 T00171033 10028 20011 56014
 
KNEL - Lakehurst Nas, New Jersey, USA
Distance from station: SE 25mi, 40km
Updated: Sun, 28-Nov-2021 7:00am EST
Overcast
Overcast
 Wind from calm
Wind: Calm
Temperature: 34°F , 1°C
Dew Point: 25°F , -4°C
Humidity: 70%
Barometer: 29.89 inHg , 1012.2 hPa
Clouds: Overcast
Cloud details: Overcast 5500 ft
2021/11/28 12:00 KNEL 281200Z AUTO 00000KT OVC055 01/M04 A2989 RMK AO2 SLP122 T00061039 10011 20000 56015 $
KBLM - Belmar/Farmdale, New Jersey, USA
Distance from station: ESE 30mi, 48km
Updated: Sun, 28-Nov-2021 6:56am EST
Overcast
Overcast
 Wind from calm
Wind: Calm
Temperature: 34°F , 1°C
Dew Point: 28°F , -2°C
Humidity: 81%
Barometer: 29.91 inHg , 1012.9 hPa
Clouds: Overcast
Visibility: 10 miles , 16 km
Cloud details: Overcast 5500 ft
2021/11/28 11:56 KBLM 281156Z AUTO 00000KT 10SM OVC055 01/M02 A2991 RMK AO2 SLP131 6//// 7//// T00111022 10011 20000 55010 FZRANO PNO $
KMJX - Toms River, New Jersey, USA
Distance from station: SE 30mi, 49km
Updated: Wed, 24-Nov-2021 11:56pm EST
NOT Current
Clear
Clear
 Wind from SSW
Wind: SSW 3 mph , 6 km/h
Temperature: 28°F , -2°C
Dew Point: 23°F , -5°C
Humidity: 80%
Barometer: 30.26 inHg , 1024.7 hPa
Clouds: Clear
Visibility: 10 miles , 16 km
2021/11/25 04:56 KMJX 250456Z AUTO 21003KT 10SM CLR M02/M05 A3026 RMK AO2 SLP253 T10221050 400721028 FZRANO TSNO
 
KLOM - Philly Wings F, Pennsylvania, USA
Distance from station: WSW 33mi, 52km
Updated: Sun, 28-Nov-2021 6:55am EST
Overcast
Overcast
 Wind from E
Wind: E 5 mph , 7 km/h
Temperature: 34°F , 1°C
Wind Chill: 29°F , -2°C
Dew Point: 27°F , -3°C
Humidity: 75%
Barometer: 29.87 inHg , 1011.5 hPa
Clouds: Overcast
Visibility: 10 miles , 16 km
Cloud details: Partly cloudy 4800 ft
Mostly cloudy 6500 ft
Overcast 10000 ft
2021/11/28 11:55 KLOM 281155Z AUTO 10004KT 10SM SCT048 BKN065 OVC100 01/M03 A2987 RMK AO2 T00091030 10015 20005
KCKZ - Perkasie, Pennsylvania, USA
Distance from station: WNW 33mi, 53km
Updated: Sun, 28-Nov-2021 6:55am EST
Overcast
Overcast
 Wind from calm
Wind: Calm
Temperature: 32°F , 0°C
Dew Point: 28°F , -2°C
Humidity: 87%
Barometer: 29.87 inHg , 1011.5 hPa
Clouds: Overcast
Visibility: 10 miles , 16 km
Cloud details: Mostly cloudy 4400 ft
Overcast 5000 ft
2021/11/28 11:55 KCKZ 281155Z AUTO 00000KT 10SM BKN044 OVC050 00/M02 A2987 RMK AO2
KLDJ - Linden, New Jersey, USA
Distance from station: NE 33mi, 53km
Updated: Sun, 28-Nov-2021 7:15am EST
Overcast
Overcast
 Wind from calm
Wind: Calm
Temperature: 34°F , 1°C
Dew Point: 28°F , -2°C
Humidity: 81%
Barometer: 29.91 inHg , 1012.9 hPa
Clouds: Overcast
Visibility: 10 miles , 16 km
Cloud details: Partly cloudy 4800 ft
Overcast 6500 ft
2021/11/28 12:15 KLDJ 281215Z AUTO 00000KT 10SM SCT048 OVC065 01/M02 A2991 RMK AO2 T00051018
 
KMMU - Morristown Muni, New Jersey, USA
Distance from station: NNE 38mi, 62km
Updated: Sun, 28-Nov-2021 6:45am EST
Mostly cloudy
Mostly cloudy
 Wind from calm
Wind: Calm
Temperature: 30°F , -1°C
Dew Point: 28°F , -2°C
Humidity: 93%
Barometer: 29.91 inHg , 1012.9 hPa
Clouds: Mostly cloudy
Visibility: 10 miles , 16 km
Cloud details: Partly cloudy 3000 ft
Mostly cloudy 7000 ft
2021/11/28 11:45 KMMU 281145Z 00000KT 10SM SCT030 BKN070 M01/M02 A2991
KEWR - Newark, New Jersey, USA
Distance from station: NE 39mi, 63km
Updated: Sun, 28-Nov-2021 6:51am EST
Light snow, Overcast
Light snow, Overcast
 Wind from calm
Wind: Calm
Temperature: 36°F , 2°C
Dew Point: 28°F , -2°C
Humidity: 75%
Barometer: 29.91 inHg , 1012.9 hPa
Summary: Light Snow
Clouds: Overcast
Visibility: 10 miles , 16 km
Cloud details: Few Clouds 1800 ft
Mostly cloudy 6000 ft
Overcast 10000 ft
2021/11/28 11:51 KEWR 281151Z 00000KT 10SM -SN FEW018 BKN060 OVC100 02/M02 A2991 RMK AO2 SLP127 P0000 60000 T00171022 10028 20006 56006
KUKT - Quakertown Arp, Pennsylvania, USA
Distance from station: WNW 39mi, 63km
Updated: Sun, 28-Nov-2021 6:55am EST
Mostly cloudy
Mostly cloudy
 Wind from calm
Wind: Calm
Temperature: 32°F , 0°C
Dew Point: 27°F , -3°C
Humidity: 80%
Barometer: 29.86 inHg , 1011.2 hPa
Clouds: Mostly cloudy
Visibility: 10 miles , 16 km
Cloud details: Mostly cloudy 4400 ft
Mostly cloudy 5000 ft
Mostly cloudy 6500 ft
2021/11/28 11:55 KUKT 281155Z AUTO 00000KT 10SM BKN044 BKN050 BKN065 M00/M03 A2986 RMK A01
 
KPHL - Philadelphia, Pennsylvania, USA
Distance from station: SW 40mi, 65km
Updated: Sun, 28-Nov-2021 6:54am EST
Mostly cloudy
Mostly cloudy
 Wind from ESE
Wind: ESE 7 mph , 11 km/h
Temperature: 37°F , 3°C
Wind Chill: 32°F , 0°C
Dew Point: 28°F , -2°C
Humidity: 70%
Barometer: 29.88 inHg , 1011.9 hPa
Clouds: Mostly cloudy
Visibility: 10 miles , 16 km
Cloud details: Few Clouds 5500 ft
Partly cloudy 8000 ft
Mostly cloudy 10000 ft
2021/11/28 11:54 KPHL 281154Z 11006KT 10SM FEW055 SCT080 BKN100 03/M02 A2988 RMK AO2 SLP117 T00281022 10039 20028 56017
KJRB - Manhattan/Dwntwn, New York, USA
Distance from station: NE 46mi, 74km
Updated: Sat, 13-Nov-2021 12:56pm EST
NOT Current
Partly cloudy
Partly cloudy
 Wind from S
Wind: S 13 mph , 20 km/h, Gust: 21 mph , 33 km/h
Temperature: 63°F , 17°C
Dew Point: 50°F , 10°C
Humidity: 64%
Barometer: 29.65 inHg , 1004.1 hPa
Clouds: Partly cloudy
Visibility: 10 miles , 16 km
Cloud details: Partly cloudy 7000 ft
2021/11/13 17:56 KJRB 131756Z AUTO 19011G18KT 10SM SCT070 17/10 A2965 RMK AO2 LTG DSNT W AND NW SLPNO 6//// T01720100
KPTW - Pottstown, Pennsylvania, USA
Distance from station: W 46mi, 74km
Updated: Sun, 28-Nov-2021 6:54am EST
Overcast
Overcast
 Wind from NE
Wind: NE 3 mph , 6 km/h
Temperature: 30°F , -1°C
Dew Point: 25°F , -4°C
Humidity: 80%
Barometer: 29.87 inHg , 1011.5 hPa
Clouds: Overcast
Cloud details: Few Clouds 4700 ft
Mostly cloudy 6500 ft
Overcast 9500 ft
2021/11/28 11:54 KPTW 281154Z AUTO 05003KT FEW047 BKN065 OVC095 M01/M04 A2987 RMK AO2 SLP116 T10061039 10000 21006 56012 $
 
KCDW - Caldwell, New Jersey, USA
Distance from station: NNE 47mi, 76km
Updated: Sun, 28-Nov-2021 6:53am EST
Overcast
Overcast
 Wind from calm
Wind: Calm
Temperature: 34°F , 1°C
Dew Point: 27°F , -3°C
Humidity: 75%
Barometer: 29.91 inHg , 1012.9 hPa
Clouds: Overcast
Visibility: 10 miles , 16 km
Cloud details: Few Clouds 3100 ft
Overcast 4300 ft
2021/11/28 11:53 KCDW 281153Z 00000KT 10SM FEW031 OVC043 01/M03 A2991 RMK AO2 SNE1057 SLP134 P0000 60000 T00061028 10022 20006 56006
KXLL - Allentown Queen, Pennsylvania, USA
Distance from station: WNW 47mi, 76km
Updated: Sun, 28-Nov-2021 6:55am EST
Overcast
Overcast
 Wind from calm
Wind: Calm
Temperature: 32°F , 0°C
Dew Point: 28°F , -2°C
Humidity: 87%
Barometer: 29.88 inHg , 1011.9 hPa
Clouds: Overcast
Visibility: 10 miles , 16 km
Cloud details: Partly cloudy 2900 ft
Mostly cloudy 4100 ft
Overcast 4800 ft
2021/11/28 11:55 KXLL 281155Z AUTO 00000KT 10SM SCT029 BKN041 OVC048 00/M02 A2988 RMK AO2